Time;durP1;ratioP1;P1;durP2;ratioP2;P2;SDS_P1;SDS_P2;PMS_P1;PMS_P2;Temp;Humidity;BMP_temperature;BMP_pressure;BME280_temperature;BME280_humidity;BME280_pressure;Samples;Min_cycle;Max_cycle;Signal;HPM_P1;HPM_P2
2023/05/27 00:02:06;;;;;;;14.60;13.37;;;;;;;14.31;100.00;92938.44;5015493;28;20176;-75
2023/05/27 00:04:31;;;;;;;14.90;13.70;;;;;;;14.11;100.00;92932.75;5011053;28;20242;-75
2023/05/27 00:06:56;;;;;;;14.47;13.30;;;;;;;13.95;100.00;92934.88;5011890;28;20179;-75
2023/05/27 00:09:22;;;;;;;16.97;15.23;;;;;;;13.76;100.00;92946.53;5008675;28;20208;-75
2023/05/27 00:11:47;;;;;;;17.40;15.80;;;;;;;13.77;100.00;92942.84;5008376;28;20235;-74
2023/05/27 00:14:12;;;;;;;20.23;18.33;;;;;;;13.63;100.00;92948.06;5011418;28;20231;-75
2023/05/27 00:16:38;;;;;;;19.40;17.60;;;;;;;13.46;100.00;92937.34;5015595;28;20187;-75
2023/05/27 00:19:03;;;;;;;22.07;18.73;;;;;;;13.56;100.00;92931.91;5011123;28;20202;-75
2023/05/27 00:21:29;;;;;;;21.00;19.00;;;;;;;13.64;100.00;92948.81;5012171;28;21002;-75
2023/05/27 00:23:57;;;;;;;21.13;18.87;;;;;;;13.49;100.00;92955.13;4993365;28;20191;-75
2023/05/27 00:26:23;;;;;;;22.53;20.37;;;;;;;13.32;100.00;92946.22;5011195;28;20211;-74
2023/05/27 00:28:48;;;;;;;19.97;18.17;;;;;;;13.40;100.00;92940.31;5010187;28;20191;-75
2023/05/27 00:31:14;;;;;;;19.13;17.20;;;;;;;13.16;100.00;92942.25;5011670;28;20231;-75
2023/05/27 00:33:40;;;;;;;16.00;14.70;;;;;;;13.12;100.00;92913.22;5011192;28;20210;-75
2023/05/27 00:36:05;;;;;;;16.47;14.87;;;;;;;13.25;100.00;92922.97;5011424;28;20234;-75
2023/05/27 00:38:31;;;;;;;16.80;15.30;;;;;;;13.45;100.00;92904.28;5010550;28;20195;-75
2023/05/27 00:40:57;;;;;;;15.53;14.13;;;;;;;13.38;100.00;92898.66;5010598;28;20231;-75
2023/05/27 00:43:22;;;;;;;15.67;14.47;;;;;;;13.59;100.00;92905.09;5010928;28;20176;-73
2023/05/27 00:45:47;;;;;;;13.00;12.00;;;;;;;13.38;100.00;92872.41;5011302;28;20215;-73
2023/05/27 00:48:13;;;;;;;11.47;10.87;;;;;;;13.42;100.00;92880.47;5010371;28;20186;-72
2023/05/27 00:50:39;;;;;;;10.57;10.00;;;;;;;13.45;100.00;92887.78;5011883;28;20222;-72
2023/05/27 00:53:05;;;;;;;10.53;10.03;;;;;;;13.32;100.00;92857.84;5010545;28;20187;-73
2023/05/27 00:55:30;;;;;;;9.30;8.80;;;;;;;13.54;100.00;92883.44;5022546;28;20215;-73
2023/05/27 00:57:56;;;;;;;8.80;8.40;;;;;;;13.36;100.00;92863.25;5010756;28;20187;-73
2023/05/27 01:00:22;;;;;;;9.07;8.67;;;;;;;13.47;100.00;92872.53;5010238;28;20238;-73
2023/05/27 01:02:49;;;;;;;8.90;8.50;;;;;;;13.52;100.00;92854.88;5010237;28;20257;-73
2023/05/27 01:05:17;;;;;;;9.50;9.03;;;;;;;13.63;100.00;92874.59;4992601;28;20223;-72
2023/05/27 01:07:54;;;;;;;9.77;9.37;;;;;;;13.63;100.00;92869.34;5010920;28;20211;-74
2023/05/27 01:10:47;;;;;;;9.37;8.97;;;;;;;13.60;100.00;92863.91;4999095;28;20247;-73
2023/05/27 01:13:19;;;;;;;9.23;8.83;;;;;;;13.66;100.00;92863.53;5002044;28;20223;-73
2023/05/27 01:15:47;;;;;;;8.47;8.07;;;;;;;13.49;100.00;92846.78;5020823;28;20233;-72
2023/05/27 01:18:16;;;;;;;8.30;7.90;;;;;;;13.49;100.00;92829.22;5011082;28;20255;-73
2023/05/27 01:20:43;;;;;;;9.70;9.10;;;;;;;13.57;100.00;92822.50;5016348;28;20891;-72
2023/05/27 01:23:09;;;;;;;9.37;8.77;;;;;;;13.45;100.00;92835.34;5016491;28;20187;-71
2023/05/27 01:25:35;;;;;;;8.60;8.20;;;;;;;13.33;100.00;92820.06;5010864;28;20238;-73
2023/05/27 01:28:00;;;;;;;9.53;9.13;;;;;;;13.50;100.00;92837.84;5011818;28;20179;-73
2023/05/27 01:30:26;;;;;;;7.77;7.47;;;;;;;13.40;100.00;92833.56;5023431;28;20241;-73
2023/05/27 01:33:00;;;;;;;9.33;8.80;;;;;;;13.43;100.00;92830.34;5011410;28;20195;-73
2023/05/27 01:35:41;;;;;;;9.33;8.93;;;;;;;13.36;100.00;92819.47;4999533;28;20227;-75
2023/05/27 01:38:09;;;;;;;9.10;8.70;;;;;;;13.25;100.00;92825.97;5010594;28;20227;-73
2023/05/27 01:40:36;;;;;;;9.93;9.43;;;;;;;13.16;100.00;92795.44;5010794;28;20294;-72
2023/05/27 01:43:02;;;;;;;8.97;8.57;;;;;;;13.47;100.00;92820.06;5012298;28;20193;-73
2023/05/27 01:45:28;;;;;;;9.53;9.03;;;;;;;13.35;100.00;92812.69;4999085;28;20239;-73
2023/05/27 01:47:53;;;;;;;9.77;9.17;;;;;;;13.10;100.00;92807.09;5019224;28;20179;-73
2023/05/27 01:50:19;;;;;;;10.40;9.87;;;;;;;13.18;100.00;92809.06;5010085;28;20238;-71
2023/05/27 01:52:45;;;;;;;10.33;9.83;;;;;;;13.40;100.00;92830.16;5013552;28;20179;-73
2023/05/27 01:55:10;;;;;;;11.00;10.30;;;;;;;13.27;100.00;92821.22;5011441;28;20318;-72
2023/05/27 01:57:36;;;;;;;10.77;10.27;;;;;;;13.15;100.00;92813.03;5009645;28;20194;-73
2023/05/27 02:00:04;;;;;;;10.33;9.73;;;;;;;13.09;100.00;92826.53;5013663;28;20258;-73
2023/05/27 02:02:31;;;;;;;10.63;10.03;;;;;;;13.10;100.00;92828.06;4998490;28;20192;-73
2023/05/27 02:04:56;;;;;;;11.07;10.40;;;;;;;13.09;100.00;92831.75;5009612;28;20796;-72
2023/05/27 02:07:22;;;;;;;9.87;9.27;;;;;;;13.13;100.00;92833.53;5010096;28;20211;-72
2023/05/27 02:09:48;;;;;;;10.20;9.70;;;;;;;13.12;100.00;92831.19;5002999;28;20208;-72
2023/05/27 02:12:13;;;;;;;10.27;9.67;;;;;;;13.07;100.00;92837.28;5006214;28;20243;-72
2023/05/27 02:14:39;;;;;;;11.00;10.23;;;;;;;13.07;100.00;92845.16;5012843;28;20223;-72
2023/05/27 02:17:05;;;;;;;11.00;10.40;;;;;;;12.93;100.00;92834.59;4993238;28;20176;-73
2023/05/27 02:19:30;;;;;;;12.13;11.37;;;;;;;13.02;100.00;92828.72;5009513;28;20227;-73
2023/05/27 02:21:56;;;;;;;10.77;10.17;;;;;;;13.05;100.00;92810.59;5013134;28;20203;-73
2023/05/27 02:24:21;;;;;;;10.27;9.60;;;;;;;13.16;100.00;92827.69;5013174;28;20231;-73
2023/05/27 02:26:47;;;;;;;11.33;10.67;;;;;;;13.13;100.00;92827.50;5013521;28;20191;-73
2023/05/27 02:29:12;;;;;;;11.53;10.93;;;;;;;13.14;100.00;92829.81;5016410;28;20250;-72
2023/05/27 02:31:37;;;;;;;11.97;11.27;;;;;;;13.08;100.00;92804.75;5013517;28;20254;-73
2023/05/27 02:34:03;;;;;;;11.83;11.13;;;;;;;12.95;100.00;92802.84;5012853;28;20180;-71
2023/05/27 02:36:28;;;;;;;12.43;11.63;;;;;;;13.18;100.00;92814.31;5012470;28;20215;-71
2023/05/27 02:38:53;;;;;;;12.03;11.33;;;;;;;13.32;100.00;92821.13;5013704;28;20183;-74
2023/05/27 02:41:19;;;;;;;12.70;11.90;;;;;;;13.22;100.00;92823.91;5012917;28;20259;-72
2023/05/27 02:43:45;;;;;;;12.50;11.80;;;;;;;13.23;100.00;92828.09;5016774;28;20191;-73
2023/05/27 02:46:10;;;;;;;11.70;10.90;;;;;;;13.22;100.00;92823.13;5012809;28;20226;-72
2023/05/27 02:48:35;;;;;;;12.00;11.30;;;;;;;13.19;100.00;92806.16;5012786;28;20187;-72
2023/05/27 02:51:01;;;;;;;11.73;11.03;;;;;;;13.32;100.00;92830.84;5012260;28;20294;-73
2023/05/27 02:53:26;;;;;;;11.80;11.10;;;;;;;13.36;100.00;92832.59;5013137;28;20255;-73
2023/05/27 02:55:52;;;;;;;12.43;11.73;;;;;;;13.34;100.00;92832.09;5012864;28;20250;-72
2023/05/27 02:58:18;;;;;;;11.67;10.97;;;;;;;13.36;100.00;92832.59;5013458;28;20198;-73
2023/05/27 03:00:44;;;;;;;12.77;11.97;;;;;;;13.34;100.00;92811.09;5013729;28;20254;-72
2023/05/27 03:03:09;;;;;;;11.57;10.77;;;;;;;13.46;100.00;92826.38;5013203;28;20243;-73
2023/05/27 03:05:35;;;;;;;12.30;11.53;;;;;;;13.27;100.00;92823.06;5012338;28;20231;-72
2023/05/27 03:08:01;;;;;;;12.60;11.60;;;;;;;13.37;100.00;92818.41;5012595;28;20184;-73
2023/05/27 03:10:27;;;;;;;11.57;10.90;;;;;;;13.49;100.00;92829.22;5011734;28;20265;-72
2023/05/27 03:12:55;;;;;;;12.33;11.53;;;;;;;13.54;100.00;92823.09;5016649;28;20171;-72
2023/05/27 03:15:21;;;;;;;12.90;12.00;;;;;;;13.69;100.00;92828.84;5012621;28;20225;-73
2023/05/27 03:17:47;;;;;;;11.43;10.77;;;;;;;13.72;100.00;92809.88;5012499;28;20191;-70
2023/05/27 03:20:13;;;;;;;10.37;9.77;;;;;;;14.02;100.00;92830.25;5011255;28;20274;-72
2023/05/27 03:22:38;;;;;;;11.63;10.93;;;;;;;14.08;100.00;92825.69;5012672;28;20198;-72
2023/05/27 03:25:05;;;;;;;11.63;10.83;;;;;;;14.11;100.00;92828.50;5011871;28;20254;-73
2023/05/27 03:27:30;;;;;;;11.53;10.83;;;;;;;14.06;100.00;92818.09;5015875;28;20167;-74
2023/05/27 03:29:56;;;;;;;10.60;9.90;;;;;;;14.10;100.00;92839.31;5008711;28;20231;-74
2023/05/27 03:32:21;;;;;;;11.50;10.60;;;;;;;13.98;100.00;92831.91;5005393;28;20179;-71
2023/05/27 03:34:47;;;;;;;12.17;11.37;;;;;;;13.90;100.00;92832.59;5013985;28;20231;-71
2023/05/27 03:37:13;;;;;;;10.93;10.27;;;;;;;13.90;100.00;92843.09;5018760;28;20771;-71
2023/05/27 03:39:39;;;;;;;10.93;10.30;;;;;;;13.99;100.00;92853.72;5011212;28;20243;-71
2023/05/27 03:42:05;;;;;;;11.83;10.80;;;;;;;13.87;100.00;92835.03;5016122;28;20198;-70
2023/05/27 03:44:31;;;;;;;11.33;10.57;;;;;;;13.98;100.00;92854.75;5011190;28;20826;-69
2023/05/27 03:46:57;;;;;;;12.90;11.80;;;;;;;13.80;100.00;92837.28;5011545;28;20246;-72
2023/05/27 03:49:22;;;;;;;11.53;10.87;;;;;;;13.49;100.00;92836.28;5010736;28;20250;-70
2023/05/27 03:51:48;;;;;;;12.33;11.53;;;;;;;13.37;100.00;92841.25;5011931;28;20216;-71
2023/05/27 03:54:14;;;;;;;12.77;11.60;;;;;;;13.66;100.00;92847.78;5012474;28;20307;-70
2023/05/27 03:56:39;;;;;;;11.37;10.50;;;;;;;13.88;100.00;92849.72;5015430;28;21232;-68
2023/05/27 03:59:06;;;;;;;11.00;10.23;;;;;;;13.97;100.00;92848.75;5012535;28;20211;-69
2023/05/27 04:01:32;;;;;;;11.43;10.70;;;;;;;13.94;100.00;92844.09;5012110;28;20203;-72
2023/05/27 04:03:57;;;;;;;10.77;10.00;;;;;;;14.05;100.00;92850.69;5011302;28;20210;-72
2023/05/27 04:06:23;;;;;;;10.60;9.90;;;;;;;14.00;100.00;92839.50;5011574;28;20834;-69
2023/05/27 04:08:48;;;;;;;11.60;10.93;;;;;;;14.18;100.00;92854.34;5010719;28;20186;-67
2023/05/27 04:11:14;;;;;;;11.00;10.37;;;;;;;14.20;100.00;92857.47;5007847;28;20227;-67
2023/05/27 04:13:40;;;;;;;10.63;10.10;;;;;;;14.17;100.00;92842.31;5010634;28;20188;-66
2023/05/27 04:16:07;;;;;;;11.67;10.87;;;;;;;14.20;100.00;92847.75;5002319;28;20220;-68
2023/05/27 04:18:33;;;;;;;10.70;10.00;;;;;;;14.16;100.00;92838.88;5007649;28;20191;-66
2023/05/27 04:21:00;;;;;;;11.43;10.70;;;;;;;14.41;100.00;92859.41;5018215;28;20254;-66
2023/05/27 04:23:25;;;;;;;10.87;10.17;;;;;;;14.42;100.00;92850.47;5011646;28;20218;-66
2023/05/27 04:25:52;;;;;;;11.17;10.47;;;;;;;14.55;100.00;92861.22;5009090;28;20220;-66
2023/05/27 04:28:18;;;;;;;12.07;11.27;;;;;;;14.62;100.00;92861.59;5009323;28;20187;-66
2023/05/27 04:30:45;;;;;;;11.17;10.40;;;;;;;14.70;100.00;92860.88;5009873;28;20338;-66
2023/05/27 04:33:12;;;;;;;10.33;9.43;;;;;;;14.80;100.00;92866.69;5009668;28;20195;-65
2023/05/27 04:35:40;;;;;;;10.87;10.27;;;;;;;14.76;100.00;92859.69;5009978;28;20215;-65
2023/05/27 04:38:07;;;;;;;10.63;9.73;;;;;;;14.89;100.00;92853.63;5010251;28;20219;-67
2023/05/27 04:40:34;;;;;;;10.97;10.37;;;;;;;14.94;100.00;92856.91;5008915;28;20227;-66
2023/05/27 04:42:59;;;;;;;11.00;10.20;;;;;;;14.97;100.00;92853.69;5010170;28;20203;-66
2023/05/27 04:45:26;;;;;;;10.03;9.47;;;;;;;14.93;100.00;92851.94;5009009;28;20223;-66
2023/05/27 04:47:51;;;;;;;11.17;10.40;;;;;;;15.04;100.00;92850.63;5010150;28;20180;-66
2023/05/27 04:50:17;;;;;;;10.83;10.03;;;;;;;15.26;100.00;92843.53;5009225;28;20246;-67
2023/05/27 04:52:42;;;;;;;10.13;9.53;;;;;;;15.45;100.00;92867.03;5010224;28;20219;-66
2023/05/27 04:55:10;;;;;;;10.23;9.67;;;;;;;15.66;100.00;92868.03;5008922;28;20274;-69
2023/05/27 04:57:36;;;;;;;9.87;9.17;;;;;;;15.89;100.00;92872.19;5009317;28;20271;-66
2023/05/27 05:02:39;;;;;;;9.97;9.37;;;;;;;15.84;100.00;92859.16;5007607;28;20207;-67
2023/05/27 05:05:11;;;;;;;10.87;10.17;;;;;;;16.00;100.00;92873.44;5006555;28;20234;-68
2023/05/27 05:07:37;;;;;;;10.67;9.93;;;;;;;16.09;100.00;92875.03;5009589;28;20259;-67
2023/05/27 05:10:12;;;;;;;10.63;10.00;;;;;;;16.23;100.00;92877.56;4997050;28;20235;-70
2023/05/27 05:12:38;;;;;;;10.97;10.07;;;;;;;16.26;100.00;92881.44;5009367;28;20277;-68
2023/05/27 05:15:06;;;;;;;10.93;9.73;;;;;;;15.95;100.00;92881.50;5008525;28;20242;-67
2023/05/27 05:17:32;;;;;;;10.87;10.27;;;;;;;16.01;100.00;92881.06;5008774;28;20183;-69
2023/05/27 05:19:57;;;;;;;9.97;8.93;;;;;;;16.02;100.00;92881.84;5008770;28;20220;-72
2023/05/27 05:22:23;;;;;;;10.40;9.60;;;;;;;16.10;100.00;92886.34;5009057;28;20210;-67
2023/05/27 05:24:49;;;;;;;9.70;9.20;;;;;;;16.22;100.00;92891.81;5008488;28;20254;-69
2023/05/27 05:27:15;;;;;;;10.10;9.60;;;;;;;16.18;100.00;92874.28;5007555;28;20188;-68
2023/05/27 05:29:41;;;;;;;10.17;9.57;;;;;;;16.22;100.00;92891.81;5008045;28;20231;-67
2023/05/27 05:32:08;;;;;;;11.40;10.70;;;;;;;16.34;100.00;92893.88;5009024;28;20206;-69
2023/05/27 05:34:34;;;;;;;10.23;9.50;;;;;;;16.39;100.00;92883.94;5007801;28;20294;-69
2023/05/27 05:36:59;;;;;;;9.73;9.20;;;;;;;16.96;99.30;92895.25;5002973;28;20187;-70
2023/05/27 05:39:25;;;;;;;10.33;9.57;;;;;;;17.32;96.24;92893.06;5000761;28;20374;-69
2023/05/27 05:41:50;;;;;;;10.27;9.57;;;;;;;16.99;96.26;92892.75;5008214;28;20183;-69
2023/05/27 05:44:16;;;;;;;10.07;9.47;;;;;;;16.45;97.76;92877.47;5007776;28;20231;-69
2023/05/27 05:46:41;;;;;;;10.07;9.47;;;;;;;16.38;100.00;92879.78;5007877;28;20176;-70
2023/05/27 05:49:07;;;;;;;10.80;10.07;;;;;;;16.19;98.96;92886.41;4996645;28;20191;-69
2023/05/27 05:51:32;;;;;;;9.57;9.07;;;;;;;16.54;98.41;92899.38;5007773;28;20218;-69
2023/05/27 05:53:58;;;;;;;10.23;9.63;;;;;;;16.41;98.93;92894.97;5009681;28;20188;-69
2023/05/27 05:56:25;;;;;;;10.20;9.70;;;;;;;15.92;100.00;92897.91;5011251;28;20206;-69
2023/05/27 05:58:51;;;;;;;10.43;9.47;;;;;;;15.88;100.00;92894.31;5012796;28;20191;-72
2023/05/27 06:01:17;;;;;;;9.87;9.33;;;;;;;16.31;99.83;92908.41;5011828;28;20262;-67
2023/05/27 06:03:42;;;;;;;9.83;9.33;;;;;;;16.22;100.00;92904.97;5013211;28;20210;-66
2023/05/27 06:06:08;;;;;;;10.53;9.93;;;;;;;16.18;100.00;92906.69;5012128;28;20237;-69
2023/05/27 06:08:33;;;;;;;10.43;9.83;;;;;;;16.57;100.00;92919.84;5012088;28;20180;-68
2023/05/27 06:10:59;;;;;;;9.53;8.90;;;;;;;16.23;100.00;92917.09;5003239;28;20242;-68
2023/05/27 06:13:24;;;;;;;10.03;9.53;;;;;;;16.15;100.00;92911.78;5012789;28;20218;-68
2023/05/27 06:15:50;;;;;;;9.67;9.07;;;;;;;16.42;100.00;92919.47;5012141;28;20204;-68
2023/05/27 06:18:15;;;;;;;10.80;10.07;;;;;;;16.46;100.00;92923.06;5012870;28;20211;-68
2023/05/27 06:20:40;;;;;;;10.27;9.67;;;;;;;16.45;100.00;92921.53;5012075;28;20270;-70
2023/05/27 06:23:06;;;;;;;10.17;9.47;;;;;;;16.41;100.00;92926.59;5012797;28;20214;-68
2023/05/27 06:25:32;;;;;;;10.93;10.00;;;;;;;16.31;100.00;92926.09;5011837;28;20223;-69
2023/05/27 06:27:58;;;;;;;10.57;9.87;;;;;;;16.43;100.00;92929.72;5009235;28;20187;-70
2023/05/27 06:30:23;;;;;;;10.57;9.87;;;;;;;16.09;100.00;92924.31;5010157;28;20227;-71
2023/05/27 06:32:49;;;;;;;10.40;9.60;;;;;;;16.47;100.00;92924.66;5012404;28;20207;-70
2023/05/27 06:35:14;;;;;;;10.50;9.80;;;;;;;16.60;100.00;92931.63;5010962;28;20292;-71
2023/05/27 06:37:40;;;;;;;10.27;9.67;;;;;;;16.64;100.00;92930.72;5003586;28;20188;-69
2023/05/27 06:40:06;;;;;;;9.87;9.27;;;;;;;16.35;100.00;92933.09;5011948;28;21224;-70
2023/05/27 06:42:31;;;;;;;10.33;9.83;;;;;;;16.32;100.00;92932.91;5012676;28;20203;-70
2023/05/27 06:44:57;;;;;;;9.57;8.97;;;;;;;16.42;100.00;92932.66;5011051;28;20223;-75
2023/05/27 06:47:22;;;;;;;14.67;13.87;;;;;;;16.52;100.00;92937.66;5012469;28;20206;-70
2023/05/27 06:49:47;;;;;;;10.80;10.00;;;;;;;16.40;100.00;92940.09;4994144;28;20243;-71
2023/05/27 06:52:13;;;;;;;10.90;10.10;;;;;;;16.17;100.00;92931.50;5012483;28;20267;-73
2023/05/27 06:54:38;;;;;;;10.50;9.80;;;;;;;16.46;100.00;92936.25;5011376;28;20284;-72
2023/05/27 06:57:04;;;;;;;11.43;10.37;;;;;;;16.83;98.93;92933.84;5012093;28;20195;-73
2023/05/27 06:59:29;;;;;;;9.83;9.23;;;;;;;16.95;98.08;92944.56;5012089;28;20223;-71
2023/05/27 07:01:56;;;;;;;10.80;10.00;;;;;;;16.93;98.26;92949.41;5012150;28;20188;-71
2023/05/27 07:04:22;;;;;;;10.57;9.83;;;;;;;16.92;99.12;92944.41;5010947;28;21121;-70
2023/05/27 07:06:47;;;;;;;10.10;9.50;;;;;;;16.81;100.00;92932.63;5011021;28;20184;-71
2023/05/27 07:09:13;;;;;;;11.37;10.63;;;;;;;16.70;100.00;92940.03;5008626;28;20229;-71
2023/05/27 07:11:40;;;;;;;11.00;10.10;;;;;;;16.46;100.00;92941.53;5006623;28;20236;-74
2023/05/27 07:14:05;;;;;;;10.07;9.17;;;;;;;16.86;100.00;92941.16;5010656;28;20190;-73
2023/05/27 07:16:31;;;;;;;10.80;9.90;;;;;;;17.01;100.00;92950.50;5013133;28;20187;-73
2023/05/27 07:18:56;;;;;;;11.87;10.80;;;;;;;17.05;100.00;92948.78;5020444;28;20191;-73
2023/05/27 07:21:22;;;;;;;11.37;10.23;;;;;;;16.61;100.00;92952.41;5003699;28;20216;-72
2023/05/27 07:23:47;;;;;;;10.33;9.53;;;;;;;16.64;100.00;92948.41;5011728;28;20255;-72
2023/05/27 07:26:13;;;;;;;11.23;10.53;;;;;;;16.39;100.00;92949.84;5010925;28;20230;-72
2023/05/27 07:28:38;;;;;;;11.40;10.70;;;;;;;16.87;98.09;92945.31;5010515;28;20196;-73
2023/05/27 07:31:04;;;;;;;9.47;8.97;;;;;;;17.28;94.88;92940.41;5011265;28;20224;-73
2023/05/27 07:33:30;;;;;;;10.53;9.93;;;;;;;17.40;93.88;92961.66;5010718;28;20193;-73
2023/05/27 07:35:55;;;;;;;10.67;10.07;;;;;;;17.57;91.83;92959.03;5010987;28;20228;-72
2023/05/27 07:38:21;;;;;;;11.17;10.07;;;;;;;17.61;90.09;92930.16;5011754;28;20192;-73
2023/05/27 07:40:46;;;;;;;10.97;10.27;;;;;;;17.89;93.64;92964.91;4993480;28;20238;-73
2023/05/27 07:43:12;;;;;;;9.93;9.33;;;;;;;17.57;94.28;92963.56;5011020;28;20223;-72
2023/05/27 07:45:38;;;;;;;11.00;10.00;;;;;;;17.34;94.65;92960.28;5010417;28;20243;-72
2023/05/27 07:48:03;;;;;;;11.63;10.50;;;;;;;17.26;96.59;92963.69;5010944;28;20203;-73
2023/05/27 07:50:28;;;;;;;11.37;10.67;;;;;;;17.85;90.03;92969.25;5009829;28;21083;-72
2023/05/27 07:52:54;;;;;;;11.43;10.63;;;;;;;18.58;87.60;92968.91;5013441;28;20196;-72
2023/05/27 07:55:19;;;;;;;11.20;10.13;;;;;;;18.85;88.24;92971.09;5010228;28;20599;-72
2023/05/27 07:57:45;;;;;;;10.97;10.03;;;;;;;18.50;88.16;92967.84;5010110;28;20189;-71
2023/05/27 08:00:11;;;;;;;11.47;10.67;;;;;;;18.57;89.14;92975.28;5004538;28;20248;-72
2023/05/27 08:02:36;;;;;;;10.17;9.57;;;;;;;18.60;85.91;92972.03;5009685;28;20200;-71
2023/05/27 08:05:03;;;;;;;9.43;8.93;;;;;;;18.43;81.47;92985.28;5008673;28;20237;-71
2023/05/27 08:07:30;;;;;;;11.13;10.20;;;;;;;18.42;82.91;92979.25;5008686;28;20220;-71
2023/05/27 08:09:55;;;;;;;9.97;9.20;;;;;;;18.55;82.90;92982.78;5009442;28;20258;-72
2023/05/27 08:12:21;;;;;;;10.13;9.60;;;;;;;18.62;80.16;92983.03;5009877;28;20233;-71
2023/05/27 08:14:46;;;;;;;10.00;9.40;;;;;;;18.87;81.26;92982.91;5005771;28;20231;-72
2023/05/27 08:17:11;;;;;;;10.27;9.67;;;;;;;18.98;81.08;92975.38;5008589;28;20344;-72
2023/05/27 08:19:37;;;;;;;10.80;10.10;;;;;;;18.81;82.60;92983.41;4992624;28;20244;-72
2023/05/27 08:22:03;;;;;;;10.80;10.03;;;;;;;18.78;78.09;92978.75;5007860;28;20867;-77
2023/05/27 08:24:30;;;;;;;10.73;10.07;;;;;;;18.02;81.10;92971.88;5007427;28;20225;-72
2023/05/27 08:26:56;;;;;;;10.10;9.50;;;;;;;17.50;81.80;92966.66;5007539;28;21002;-69
2023/05/27 08:29:22;;;;;;;10.70;9.80;;;;;;;17.98;81.23;92974.34;5008862;28;20308;-69
2023/05/27 08:31:51;;;;;;;10.13;9.57;;;;;;;18.31;82.02;92962.16;5001409;28;20242;-70
2023/05/27 08:34:17;;;;;;;10.17;9.57;;;;;;;18.50;82.65;92975.78;5008590;28;20248;-72
2023/05/27 08:36:42;;;;;;;10.07;9.50;;;;;;;18.23;80.50;92988.59;5010099;28;20193;-71
2023/05/27 08:39:07;;;;;;;10.20;9.40;;;;;;;18.59;79.07;92988.97;5009785;28;20299;-70
2023/05/27 08:41:34;;;;;;;10.23;9.17;;;;;;;18.21;80.40;92996.84;5006661;28;20243;-70
2023/05/27 08:44:01;;;;;;;10.03;9.43;;;;;;;18.02;82.09;92987.72;4991237;28;20189;-71
2023/05/27 08:46:26;;;;;;;10.37;9.67;;;;;;;18.08;82.43;92983.81;5008887;28;20197;-69
2023/05/27 08:48:55;;;;;;;10.47;9.77;;;;;;;18.09;82.57;92980.06;5009360;28;20200;-70
2023/05/27 08:51:21;;;;;;;11.47;10.57;;;;;;;18.10;82.88;92976.38;5009129;28;20213;-70
2023/05/27 08:53:48;;;;;;;10.27;9.67;;;;;;;18.22;82.17;92979.13;5010208;28;20244;-69
2023/05/27 08:56:19;;;;;;;9.73;9.13;;;;;;;18.27;81.02;92969.13;5004024;28;20224;-69
2023/05/27 08:58:45;;;;;;;10.57;9.90;;;;;;;18.40;78.59;92968.19;5009672;28;20221;-69
2023/05/27 09:01:12;;;;;;;10.43;9.73;;;;;;;18.30;79.94;92980.97;5009276;28;20292;-69
2023/05/27 09:03:37;;;;;;;10.17;9.50;;;;;;;18.37;79.59;92975.94;5007523;28;20232;-69
2023/05/27 09:06:04;;;;;;;11.03;10.23;;;;;;;18.28;80.78;92962.00;5008844;28;20232;-70
2023/05/27 09:08:30;;;;;;;12.07;11.07;;;;;;;18.25;81.65;92963.41;5009363;28;20192;-69
2023/05/27 09:10:56;;;;;;;11.40;10.40;;;;;;;18.50;80.56;92969.72;4989009;28;20290;-70
2023/05/27 09:13:29;;;;;;;11.63;10.50;;;;;;;18.56;79.90;92969.22;4970479;28;20180;-70
2023/05/27 09:16:00;;;;;;;11.50;10.70;;;;;;;18.82;80.84;92969.09;4964614;28;20277;-70
2023/05/27 09:18:29;;;;;;;11.30;10.33;;;;;;;18.80;80.41;92969.41;4969510;28;20196;-69
2023/05/27 09:20:56;;;;;;;11.07;10.37;;;;;;;19.07;78.60;92968.94;4966106;28;20218;-70
2023/05/27 09:23:21;;;;;;;12.57;11.77;;;;;;;19.28;77.46;92968.22;4970286;28;20187;-69
2023/05/27 09:25:47;;;;;;;43.87;18.87;;;;;;;19.90;75.10;92984.81;4969668;28;20246;-67
2023/05/27 09:28:23;;;;;;;12.57;11.37;;;;;;;20.09;72.54;92970.00;4969865;28;20203;-69
2023/05/27 09:31:05;;;;;;;15.20;12.57;;;;;;;20.12;72.65;92955.31;4969222;28;20269;-68
2023/05/27 09:33:35;;;;;;;44.47;19.00;;;;;;;20.57;72.47;92964.81;4969422;28;20199;-72
2023/05/27 09:36:04;;;;;;;12.37;11.57;;;;;;;20.47;73.92;92967.88;4966023;28;20225;-70
2023/05/27 09:38:31;;;;;;;11.20;10.50;;;;;;;21.06;69.98;92972.78;4970520;28;20188;-70
2023/05/27 09:41:00;;;;;;;10.35;9.75;;;;;;;21.58;67.49;92973.56;4969334;28;20268;-70
2023/05/27 09:43:26;;;;;;;11.43;10.67;;;;;;;21.07;68.37;92963.69;4967103;28;20250;-70
2023/05/27 09:46:10;;;;;;;10.82;10.02;;;;;;;21.36;66.48;92961.53;4964870;28;20227;-70
2023/05/27 09:48:37;;;;;;;13.07;12.00;;;;;;;21.27;67.22;92955.59;4960634;29;20191;-69
2023/05/27 09:51:03;;;;;;;11.73;10.85;;;;;;;20.66;69.20;92959.38;4968854;28;20278;-69
2023/05/27 09:53:30;;;;;;;11.18;10.27;;;;;;;20.57;71.19;92946.22;4970376;28;20200;-69
2023/05/27 09:55:57;;;;;;;11.43;10.48;;;;;;;21.37;68.35;92954.38;4968361;28;20249;-70
2023/05/27 09:58:23;;;;;;;10.65;9.95;;;;;;;22.01;66.13;92952.34;4969351;28;20193;-69
2023/05/27 10:00:49;;;;;;;11.13;10.35;;;;;;;21.70;66.12;92949.59;4969587;28;20225;-69
2023/05/27 10:03:16;;;;;;;11.05;10.35;;;;;;;22.11;64.94;92947.34;4969934;28;20202;-71
2023/05/27 10:05:44;;;;;;;11.27;10.35;;;;;;;21.98;65.19;92959.16;4969458;28;20228;-70
2023/05/27 10:08:11;;;;;;;10.25;9.40;;;;;;;20.91;67.33;92954.81;4979818;28;20182;-70
2023/05/27 10:10:37;;;;;;;12.55;11.57;;;;;;;21.46;66.89;92957.66;4986626;28;20236;-69
2023/05/27 10:13:03;;;;;;;11.23;10.27;;;;;;;21.91;65.20;92950.22;5007027;28;20193;-69
2023/05/27 10:15:31;;;;;;;11.63;10.55;;;;;;;21.41;63.42;92953.34;5007063;28;20230;-69
2023/05/27 10:17:58;;;;;;;11.43;10.65;;;;;;;21.68;66.08;92949.16;5008250;28;20220;-69
2023/05/27 10:20:27;;;;;;;10.93;10.07;;;;;;;21.54;64.36;92946.13;5004403;28;20224;-70
2023/05/27 10:22:53;;;;;;;11.80;10.73;;;;;;;22.06;63.67;92947.59;5008428;28;20194;-71
2023/05/27 10:25:18;;;;;;;12.27;11.40;;;;;;;21.67;65.25;92934.31;5006545;28;20252;-70
2023/05/27 10:27:45;;;;;;;10.90;10.10;;;;;;;21.98;64.48;92945.84;4990784;28;20201;-70
2023/05/27 10:30:13;;;;;;;11.45;10.55;;;;;;;21.11;65.99;92944.09;5008501;28;20255;-70
2023/05/27 10:32:48;;;;;;;12.88;11.88;;;;;;;21.05;66.93;92947.31;5008579;28;20195;-70
2023/05/27 10:35:15;;;;;;;11.43;10.60;;;;;;;20.91;68.41;92930.94;5007971;28;20227;-69
2023/05/27 10:37:41;;;;;;;11.55;10.75;;;;;;;20.61;67.50;92936.50;5008837;28;20197;-71
2023/05/27 10:40:07;;;;;;;11.43;10.43;;;;;;;20.46;69.16;92934.50;5005716;28;20242;-70
2023/05/27 10:42:33;;;;;;;11.55;10.75;;;;;;;20.35;69.55;92941.34;5006836;28;20187;-70
2023/05/27 10:45:10;;;;;;;12.32;11.30;;;;;;;20.31;70.52;92929.84;5010091;28;20249;-70
2023/05/27 10:47:37;;;;;;;13.02;12.02;;;;;;;20.58;70.41;92923.88;5011819;28;20186;-70
2023/05/27 10:50:13;;;;;;;12.63;11.73;;;;;;;20.53;71.06;92931.28;5011386;28;20294;-70
2023/05/27 10:52:39;;;;;;;12.73;11.55;;;;;;;20.99;69.16;92930.06;5012093;28;20214;-70
2023/05/27 10:55:08;;;;;;;11.43;10.55;;;;;;;21.02;70.73;92924.88;5010096;28;20230;-70
2023/05/27 10:57:34;;;;;;;13.80;12.70;;;;;;;20.51;69.79;92926.31;5001103;28;20214;-70
2023/05/27 11:00:08;;;;;;;13.18;12.07;;;;;;;20.07;72.57;92916.53;5011324;28;20303;-71
2023/05/27 11:02:36;;;;;;;12.93;11.90;;;;;;;19.95;71.87;92919.16;5004653;28;20209;-69
2023/05/27 11:05:08;;;;;;;12.80;11.77;;;;;;;19.99;72.41;92928.00;5011259;28;20222;-70
2023/05/27 11:07:37;;;;;;;11.90;10.82;;;;;;;20.26;72.72;92918.69;5011699;28;20372;-70
2023/05/27 11:10:02;;;;;;;11.80;11.00;;;;;;;20.33;72.33;92909.06;5003378;28;20215;-70
2023/05/27 11:12:28;;;;;;;11.85;11.02;;;;;;;20.24;74.65;92904.97;5011814;28;20214;-70
2023/05/27 11:14:55;;;;;;;11.85;10.85;;;;;;;20.72;69.92;92915.59;5010087;28;20332;-70
2023/05/27 11:17:22;;;;;;;11.95;10.73;;;;;;;21.07;68.99;92911.38;5011127;28;20202;-70